Map

Track Data

SID SEASON NUMBER BASIN SUBBASIN NAME ISO_TIME NATURE LAT LON WMO_WIND WMO_PRES WMO_AGENCY TRACK_TYPE DIST2LAND LANDFALL IFLAG USA_AGENCY USA_ATCF_ID USA_LAT USA_LON USA_RECORD USA_STATUS USA_WIND USA_PRES USA_SSHS USA_R34_NE USA_R34_SE USA_R34_SW USA_R34_NW USA_R50_NE USA_R50_SE USA_R50_SW USA_R50_NW USA_R64_NE USA_R64_SE USA_R64_SW USA_R64_NW USA_POCI USA_ROCI USA_RMW USA_EYE TOKYO_LAT TOKYO_LON TOKYO_GRADE TOKYO_WIND TOKYO_PRES TOKYO_R50_DIR TOKYO_R50_LONG TOKYO_R50_SHORT TOKYO_R30_DIR TOKYO_R30_LONG TOKYO_R30_SHORT TOKYO_LAND CMA_LAT CMA_LON CMA_CAT CMA_WIND CMA_PRES HKO_LAT HKO_LON HKO_CAT HKO_WIND HKO_PRES NEWDELHI_LAT NEWDELHI_LON NEWDELHI_GRADE NEWDELHI_WIND NEWDELHI_PRES NEWDELHI_CI NEWDELHI_DP NEWDELHI_POCI REUNION_LAT REUNION_LON REUNION_TYPE REUNION_WIND REUNION_PRES REUNION_TNUM REUNION_CI REUNION_RMW REUNION_R34_NE REUNION_R34_SE REUNION_R34_SW REUNION_R34_NW REUNION_R50_NE REUNION_R50_SE REUNION_R50_SW REUNION_R50_NW REUNION_R64_NE REUNION_R64_SE REUNION_R64_SW REUNION_R64_NW BOM_LAT BOM_LON BOM_TYPE BOM_WIND BOM_PRES BOM_TNUM BOM_CI BOM_RMW BOM_R34_NE BOM_R34_SE BOM_R34_SW BOM_R34_NW BOM_R50_NE BOM_R50_SE BOM_R50_SW BOM_R50_NW BOM_R64_NE BOM_R64_SE BOM_R64_SW BOM_R64_NW BOM_ROCI BOM_POCI BOM_EYE BOM_POS_METHOD BOM_PRES_METHOD NADI_LAT NADI_LON NADI_CAT NADI_WIND NADI_PRES WELLINGTON_LAT WELLINGTON_LON WELLINGTON_WIND WELLINGTON_PRES DS824_LAT DS824_LON DS824_STAGE DS824_WIND DS824_PRES TD9636_LAT TD9636_LON TD9636_STAGE TD9636_WIND TD9636_PRES TD9635_LAT TD9635_LON TD9635_WIND TD9635_PRES TD9635_ROCI NEUMANN_LAT NEUMANN_LON NEUMANN_CLASS NEUMANN_WIND NEUMANN_PRES MLC_LAT MLC_LON MLC_CLASS MLC_WIND MLC_PRES USA_GUST BOM_GUST BOM_GUST_PER REUNION_GUST REUNION_GUST_PER USA_SEAHGT USA_SEARAD_NE USA_SEARAD_SE USA_SEARAD_SW USA_SEARAD_NW STORM_SPEED STORM_DIR
2022127N10091 2022 25 NI BB ASANI 2022-05-07 06:00:00 NR 9.60000 91.3000 PROVISIONAL 621 621 O_____________ tcvitals BB022022 9.60000 91.3000 39 999 0 45 45 45 60 1005 225 35 10 301
2022127N10091 2022 25 NI BB ASANI 2022-05-07 09:00:00 NR 9.85018 90.8727 PROVISIONAL 675 675 P_____________ BB022022 9.85018 90.8727 42 997 0 37 55 50 45 1004 217 30 9 302
2022127N10091 2022 25 NI BB ASANI 2022-05-07 12:00:00 NR 10.1000 90.5000 PROVISIONAL 722 722 O_____________ tcvitals BB022022 10.1000 90.5000 45 995 0 30 65 55 30 1003 210 25 8 307
2022127N10091 2022 25 NI BB ASANI 2022-05-07 15:00:00 NR 10.3499 90.2074 PROVISIONAL 762 752 P_____________ BB022022 10.3499 90.2074 48 993 0 35 57 55 47 1003 215 17 8 310
2022127N10091 2022 25 NI BB ASANI 2022-05-07 18:00:00 NR 10.6000 89.9000 PROVISIONAL 759 757 O_____________ tcvitals BB022022 10.6000 89.9000 51 992 0 40 50 55 65 1003 220 10 9 303
2022127N10091 2022 25 NI BB ASANI 2022-05-07 21:00:00 NR 10.8427 89.4351 PROVISIONAL 778 770 P_____________ BB022022 10.8427 89.4351 55 989 0 60 50 62 75 1003 230 12 10 299
2022127N10091 2022 25 NI BB ASANI 2022-05-08 00:00:00 NR 11.1000 89.0000 PROVISIONAL 785 777 O_____________ tcvitals BB022022 11.1000 89.0000 60 986 0 80 50 70 85 1003 240 14 8 310
2022127N10091 2022 25 NI BB ASANI 2022-05-08 03:00:00 NR 11.3698 88.7922 PROVISIONAL 778 771 P_____________ BB022022 11.3698 88.7922 62 983 0 92 85 85 75 1003 240 14 7 327
2022127N10091 2022 25 NI BB ASANI 2022-05-08 06:00:00 NR 11.7000 88.6000 PROVISIONAL 772 765 O_____________ tcvitals BB022022 11.7000 88.6000 64 981 1 105 120 100 65 1003 240 14 10 326
2022127N10091 2022 25 NI BB ASANI 2022-05-08 09:00:00 NR 12.1500 88.2451 PROVISIONAL 780 742 P_____________ BB022022 12.1500 88.2451 64 981 1 110 115 90 80 1003 240 14 12 319
2022127N10091 2022 25 NI BB ASANI 2022-05-08 12:00:00 NR 12.6000 87.8000 PROVISIONAL 742 678 O_____________ tcvitals BB022022 12.6000 87.8000 64 982 1 115 110 80 95 1003 240 14 12 309
2022127N10091 2022 25 NI BB ASANI 2022-05-08 15:00:00 NR 12.9076 87.2923 PROVISIONAL 678 615 P_____________ BB022022 12.9076 87.2923 64 982 1 117 110 100 87 1003 245 14 11 302
2022127N10091 2022 25 NI BB ASANI 2022-05-08 18:00:00 NR 13.2000 86.8000 PROVISIONAL 615 553 O_____________ tcvitals BB022022 13.2000 86.8000 64 982 1 120 110 120 80 1003 250 14 11 310
2022127N10091 2022 25 NI BB ASANI 2022-05-08 21:00:00 NR 13.6149 86.4200 PROVISIONAL 553 500 P_____________ BB022022 13.6149 86.4200 59 985 0 117 105 105 75 1003 260 19 11 320
2022127N10091 2022 25 NI BB ASANI 2022-05-09 00:00:00 NR 14.0000 86.1000 PROVISIONAL 500 455 O_____________ tcvitals BB022022 14.0000 86.1000 54 988 0 115 100 90 70 1004 270 25 9 318
2022127N10091 2022 25 NI BB ASANI 2022-05-09 03:00:00 NR 14.2749 85.8075 PROVISIONAL 455 422 P_____________ BB022022 14.2749 85.8075 57 986 0 115 102 80 80 1003 247 25 7 305
2022127N10091 2022 25 NI BB ASANI 2022-05-09 06:00:00 NR 14.4000 85.5000 PROVISIONAL 422 395 O_____________ tcvitals BB022022 14.4000 85.5000 60 984 0 115 105 70 90 1002 225 25 7 271
2022127N10091 2022 25 NI BB ASANI 2022-05-09 09:00:00 NR 14.2926 85.0921 PROVISIONAL 395 372 P_____________ BB022022 14.2926 85.0921 57 985 0 120 107 80 100 1002 225 25 8 256
2022127N10091 2022 25 NI BB ASANI 2022-05-09 12:00:00 NR 14.2000 84.7000 PROVISIONAL 372 333 O_____________ tcvitals BB022022 14.2000 84.7000 54 986 0 126 110 90 110 1002 225 25 7 282
2022127N10091 2022 25 NI BB ASANI 2022-05-09 15:00:00 NR 14.4274 84.4127 PROVISIONAL 333 294 P_____________ BB022022 14.4274 84.4127 54 986 0 126 102 97 112 1002 225 25 7 316
2022127N10091 2022 25 NI BB ASANI 2022-05-09 18:00:00 NR 14.7000 84.2000 PROVISIONAL 294 278 O_____________ tcvitals BB022022 14.7000 84.2000 54 986 0 126 95 105 115 1002 225 25 4 322
2022127N10091 2022 25 NI BB ASANI 2022-05-09 21:00:00 NR 14.7795 84.1323 PROVISIONAL 278 264 P_____________ BB022022 14.7795 84.1323 59 981 0 118 100 100 105 1000 177 27 3 289
2022127N10091 2022 25 NI BB ASANI 2022-05-10 00:00:00 NR 14.8000 83.9000 PROVISIONAL 264 223 O_____________ tcvitals BB022022 14.8000 83.9000 64 976 1 110 105 95 95 998 130 30 10 273
2022127N10091 2022 25 NI BB ASANI 2022-05-10 03:00:00 NR 14.8286 83.1150 PROVISIONAL 218 169 P_____________ BB022022 14.8286 83.1150 64 976 1 112 110 102 115 998 130 25 16 274
2022127N10091 2022 25 NI BB ASANI 2022-05-10 06:00:00 NR 14.9000 82.3000 PROVISIONAL 169 131 O_____________ tcvitals BB022022 14.9000 82.3000 64 977 1 115 115 110 135 999 130 20 11 284
2022127N10091 2022 25 NI BB ASANI 2022-05-10 09:00:00 NR 15.0995 81.9750 PROVISIONAL 131 100 P_____________ BB022022 15.0995 81.9750 62 978 0 122 112 105 130 998 130 20 6 310
2022127N10091 2022 25 NI BB ASANI 2022-05-10 12:00:00 NR 15.3000 81.8000 PROVISIONAL 100 69 O_____________ tcvitals BB022022 15.3000 81.8000 60 979 0 130 110 100 126 998 130 20 5 299
2022127N10091 2022 25 NI BB ASANI 2022-05-10 15:00:00 NR 15.3575 81.4999 PROVISIONAL 69 46 P_____________ BB022022 15.3575 81.4999 57 980 0 135 127 115 108 998 125 20 6 280
2022127N10091 2022 25 NI BB ASANI 2022-05-10 18:00:00 NR 15.4000 81.2000 PROVISIONAL 46 22 O_____________ tcvitals BB022022 15.4000 81.2000 54 982 0 140 145 130 90 999 120 20 6 288
2022127N10091 2022 25 NI BB ASANI 2022-05-10 21:00:00 NR 15.5575 80.8751 PROVISIONAL 11 10 P_____________ BB022022 15.5575 80.8751 52 984 0 107 120 112 87 999 135 20 6 302
2022127N10091 2022 25 NI BB ASANI 2022-05-11 00:00:00 NR 15.7000 80.7000 PROVISIONAL 10 0 O_____________ tcvitals BB022022 15.7000 80.7000 51 986 0 75 95 95 85 999 150 20 1 358
2022127N10091 2022 25 NI BB ASANI 2022-05-11 03:00:00 NR 15.7001 80.8700 PROVISIONAL 0 0 P_____________ BB022022 15.7001 80.8700 45 989 0 67 87 90 65 1000 132 20 4 90
2022127N10091 2022 25 NI BB ASANI 2022-05-11 06:00:00 NR 15.7000 81.1000 PROVISIONAL 15 10 O_____________ tcvitals BB022022 15.7000 81.1000 39 993 0 60 80 85 45 1001 115 20 3 65
2022127N10091 2022 25 NI BB ASANI 2022-05-11 09:00:00 NR 15.8125 81.1226 PROVISIONAL 10 0 P_____________ BB022022 15.8125 81.1226 37 994 0 42 62 62 42 1000 110 20 3 343
2022127N10091 2022 25 NI BB ASANI 2022-05-11 12:00:00 NR 16.0000 81.0000 PROVISIONAL 0 O_____________ tcvitals BB022022 16.0000 81.0000 35 995 0 25 45 40 40 1000 105 20 4 328

About IBTrACS Database

This database is a web-friendly format of International Best Track Archive for Climate Stewardship (IBTrACS), a global best track data archive curated by NOAA dating back to 1842.

Updated: 2022-05-26